createdAt,value
2022-12-15T00:00:55.568Z,84.24
2022-12-15T00:04:45.696Z,84.41
2022-12-15T00:08:30.951Z,84.55
2022-12-15T00:12:14.878Z,84.39
2022-12-15T00:15:59.157Z,84.69
2022-12-15T00:19:43.855Z,84.57
2022-12-15T00:23:29.473Z,84.28
2022-12-15T00:27:13.914Z,84.40
2022-12-15T00:31:02.253Z,84.50
2022-12-15T00:34:45.742Z,84.51
2022-12-15T00:38:32.546Z,84.67
2022-12-15T00:41:59.192Z,84.50
2022-12-15T00:45:46.709Z,84.42
2022-12-15T00:49:27.526Z,84.76
2022-12-15T00:53:11.746Z,84.57
2022-12-15T00:56:56.310Z,84.34
2022-12-15T01:00:40.799Z,84.69
2022-12-15T01:04:25.343Z,84.76
2022-12-15T01:08:09.574Z,84.71
2022-12-15T01:11:54.169Z,84.47
2022-12-15T01:15:38.796Z,84.65
2022-12-15T01:19:23.662Z,84.81
2022-12-15T01:22:52.957Z,84.50
2022-12-15T01:26:20.558Z,84.67
2022-12-15T01:29:47.557Z,84.57
2022-12-15T01:33:14.693Z,84.59
2022-12-15T01:36:41.782Z,84.50
2022-12-15T01:40:30.138Z,84.50
2022-12-15T01:44:15.295Z,84.54
2022-12-15T01:47:42.752Z,84.33
2022-12-15T01:51:21.611Z,84.40
2022-12-15T01:54:49.672Z,84.34
2022-12-15T01:58:18.876Z,84.25
2022-12-15T02:01:49.556Z,84.42
2022-12-15T02:05:17.002Z,84.29
2022-12-15T02:08:46.310Z,84.43
2022-12-15T02:12:22.884Z,84.36
2022-12-15T02:15:55.316Z,84.19
2022-12-15T02:19:49.258Z,84.15
2022-12-15T02:23:46.823Z,84.39
2022-12-15T02:27:48.825Z,84.38
2022-12-15T02:31:38.651Z,84.53
2022-12-15T02:35:11.938Z,84.78
2022-12-15T02:38:41.807Z,84.80
2022-12-15T02:42:10.415Z,84.65
2022-12-15T02:45:42.570Z,84.72
2022-12-15T02:49:20.264Z,84.80
2022-12-15T02:52:59.237Z,84.89
2022-12-15T02:56:27.217Z,84.96
2022-12-15T02:59:59.040Z,85.07
2022-12-15T03:03:27.762Z,85.11
2022-12-15T03:07:00.908Z,84.87
2022-12-15T03:10:29.307Z,84.87
2022-12-15T03:13:56.510Z,84.92
2022-12-15T03:17:23.708Z,85.03
2022-12-15T03:20:50.584Z,84.99
2022-12-15T03:24:17.365Z,85.16
2022-12-15T03:27:44.371Z,84.99
2022-12-15T03:31:11.488Z,85.10
2022-12-15T03:34:38.207Z,85.24
2022-12-15T03:38:05.146Z,85.04
2022-12-15T03:41:31.852Z,84.96
2022-12-15T03:44:58.847Z,84.88
2022-12-15T03:48:26.007Z,84.70
2022-12-15T03:51:53.892Z,84.74
2022-12-15T03:55:21.450Z,84.80
2022-12-15T03:58:48.147Z,84.55
2022-12-15T04:02:15.350Z,84.77
2022-12-15T04:05:42.924Z,84.69
2022-12-15T04:09:09.970Z,84.72
2022-12-15T04:12:39.898Z,84.40
2022-12-15T04:16:07.641Z,84.47
2022-12-15T04:19:52.012Z,84.69
2022-12-15T04:23:19.153Z,84.81
2022-12-15T04:27:03.658Z,84.70
2022-12-15T04:30:48.963Z,84.61
2022-12-15T04:34:37.205Z,84.64
2022-12-15T04:38:22.233Z,84.62
2022-12-15T04:42:06.627Z,84.79
2022-12-15T04:45:51.470Z,84.65
2022-12-15T04:49:35.851Z,84.80
2022-12-15T04:53:30.577Z,84.86
2022-12-15T04:57:15.542Z,84.90
2022-12-15T05:01:00.066Z,85.08
2022-12-15T05:04:44.691Z,85.23
2022-12-15T05:08:29.247Z,85.22
2022-12-15T05:12:13.561Z,85.20
2022-12-15T05:15:58.378Z,84.94
2022-12-15T05:19:43.060Z,85.13
2022-12-15T05:23:27.880Z,85.22
2022-12-15T05:27:12.380Z,85.29
2022-12-15T05:30:56.780Z,85.38
2022-12-15T05:34:26.237Z,85.52
2022-12-15T05:37:53.594Z,85.24
2022-12-15T05:41:22.029Z,85.09
2022-12-15T05:44:48.746Z,85.05
2022-12-15T05:48:16.788Z,84.86
2022-12-15T05:51:45.115Z,85.00
2022-12-15T05:55:12.621Z,85.08
2022-12-15T05:58:45.043Z,84.87
2022-12-15T06:02:12.690Z,85.21
2022-12-15T06:05:40.468Z,84.95
2022-12-15T06:09:07.471Z,84.88
2022-12-15T06:12:34.222Z,85.13
2022-12-15T06:16:02.789Z,84.87
2022-12-15T06:19:29.573Z,85.07
2022-12-15T06:22:56.322Z,84.85
2022-12-15T06:26:25.462Z,84.99
2022-12-15T06:29:52.157Z,85.02
2022-12-15T06:33:19.236Z,85.01
2022-12-15T06:36:46.730Z,85.05
2022-12-15T06:40:14.470Z,85.00
2022-12-15T06:43:41.201Z,84.67
2022-12-15T06:47:08.438Z,84.88
2022-12-15T06:50:36.594Z,84.94
2022-12-15T06:54:03.492Z,85.20
2022-12-15T06:57:30.236Z,84.93
2022-12-15T07:00:57.495Z,85.09
2022-12-15T07:04:24.277Z,85.32
2022-12-15T07:07:53.119Z,85.15
2022-12-15T07:11:20.870Z,85.21
2022-12-15T07:14:53.215Z,85.04
2022-12-15T07:18:20.885Z,85.29
2022-12-15T07:21:47.956Z,85.23
2022-12-15T07:25:14.654Z,85.62
2022-12-15T07:28:42.169Z,85.39
2022-12-15T07:32:09.300Z,85.65
2022-12-15T07:35:36.123Z,85.86
2022-12-15T07:39:04.936Z,85.90
2022-12-15T07:42:31.683Z,86.10
2022-12-15T07:45:58.794Z,86.45
2022-12-15T07:49:25.823Z,86.71
2022-12-15T07:52:53.156Z,86.87
2022-12-15T07:56:21.090Z,87.14
2022-12-15T07:59:48.635Z,86.89
2022-12-15T08:03:15.531Z,86.59
2022-12-15T08:06:43.086Z,86.52
2022-12-15T08:10:10.835Z,86.28
2022-12-15T08:14:01.903Z,86.50
2022-12-15T08:17:25.669Z,86.32
2022-12-15T08:20:52.405Z,86.18
2022-12-15T08:24:19.750Z,85.91
2022-12-15T08:27:46.628Z,86.22
2022-12-15T08:31:15.625Z,86.31
2022-12-15T08:34:42.391Z,86.46
2022-12-15T08:38:09.050Z,86.74
2022-12-15T08:41:35.766Z,86.88
2022-12-15T08:45:02.501Z,87.15
2022-12-15T08:48:29.350Z,87.22
2022-12-15T08:51:56.128Z,87.37
2022-12-15T08:55:23.805Z,87.55
2022-12-15T08:58:55.761Z,87.21
2022-12-15T09:02:23.183Z,87.35
2022-12-15T09:05:50.682Z,87.12
2022-12-15T09:09:17.513Z,87.18
2022-12-15T09:12:44.560Z,87.03
2022-12-15T09:16:15.656Z,87.11
2022-12-15T09:19:42.661Z,87.10
2022-12-15T09:23:09.353Z,87.17
2022-12-15T09:26:36.952Z,87.04
2022-12-15T09:30:04.322Z,86.96
2022-12-15T09:33:31.602Z,86.95
2022-12-15T09:36:59.162Z,86.90
2022-12-15T09:40:25.970Z,86.75
2022-12-15T09:43:59.717Z,86.79
2022-12-15T09:47:35.884Z,86.91
2022-12-15T09:51:05.395Z,87.01
2022-12-15T09:54:35.419Z,87.13
2022-12-15T09:58:11.128Z,87.14
2022-12-15T10:01:45.139Z,87.08
2022-12-15T10:05:38.180Z,87.10
2022-12-15T10:09:19.461Z,87.13
2022-12-15T10:12:59.839Z,87.12
2022-12-15T10:16:34.642Z,87.12
2022-12-15T10:20:08.461Z,86.79
2022-12-15T10:23:37.667Z,86.83
2022-12-15T10:27:19.940Z,86.51
2022-12-15T10:30:59.598Z,86.47
2022-12-15T10:34:31.074Z,86.29
2022-12-15T10:38:01.260Z,86.25
2022-12-15T10:41:32.787Z,86.16
2022-12-15T10:45:00.730Z,86.33
2022-12-15T10:48:27.455Z,86.31
2022-12-15T10:51:57.341Z,86.39
2022-12-15T10:55:39.351Z,86.15
2022-12-15T10:59:23.302Z,85.98
2022-12-15T11:02:50.299Z,85.96
2022-12-15T11:06:21.641Z,85.90
2022-12-15T11:09:50.948Z,85.76
2022-12-15T11:13:19.863Z,85.62
2022-12-15T11:16:53.603Z,85.38
2022-12-15T11:20:29.141Z,85.22
2022-12-15T11:24:06.563Z,85.14
2022-12-15T11:27:37.405Z,84.32
2022-12-15T11:31:14.379Z,83.98
2022-12-15T11:34:46.337Z,83.83
2022-12-15T11:38:22.369Z,83.52
2022-12-15T11:41:58.872Z,83.35
2022-12-15T11:45:33.924Z,83.07
2022-12-15T11:49:25.553Z,83.53
2022-12-15T11:53:15.961Z,83.32
2022-12-15T11:56:48.975Z,82.89
2022-12-15T12:15:17.647Z,81.53
2022-12-15T12:24:18.225Z,81.97
2022-12-15T12:33:24.777Z,80.31
2022-12-15T12:37:23.337Z,80.45
2022-12-15T12:41:00.589Z,80.42
2022-12-15T12:44:33.474Z,80.88
2022-12-15T12:48:04.437Z,81.00
2022-12-15T12:51:33.498Z,80.60
2022-12-15T12:55:03.281Z,80.53
2022-12-15T12:58:39.106Z,80.87
2022-12-15T13:02:38.205Z,80.95
2022-12-15T13:06:24.108Z,81.38
2022-12-15T13:10:14.879Z,81.52
2022-12-15T13:13:51.205Z,81.40
2022-12-15T13:17:27.252Z,81.66
2022-12-15T13:20:57.486Z,81.85
2022-12-15T13:24:34.480Z,81.66
2022-12-15T13:28:03.928Z,81.77
2022-12-15T13:31:47.245Z,82.10
2022-12-15T13:35:32.261Z,81.62
2022-12-15T13:38:59.005Z,81.68
2022-12-15T13:42:48.257Z,81.75
2022-12-15T13:46:27.368Z,81.62
2022-12-15T13:50:02.117Z,81.59
2022-12-15T13:53:33.648Z,81.69
2022-12-15T13:57:06.060Z,81.47
2022-12-15T14:00:33.935Z,81.48
2022-12-15T14:04:08.321Z,81.45
2022-12-15T14:07:36.008Z,81.55
2022-12-15T14:11:22.427Z,81.67
2022-12-15T14:14:52.422Z,81.71
2022-12-15T14:18:28.889Z,81.67
2022-12-15T14:21:58.192Z,81.93
2022-12-15T14:25:29.281Z,82.17
2022-12-15T14:29:03.825Z,82.10
2022-12-15T14:32:30.888Z,82.33
2022-12-15T14:35:59.406Z,82.21
2022-12-15T14:39:31.805Z,82.24
2022-12-15T14:42:59.102Z,82.29
2022-12-15T14:46:28.575Z,82.41
2022-12-15T14:49:56.924Z,82.49
2022-12-15T14:53:24.431Z,82.47
2022-12-15T14:57:00.497Z,82.41
2022-12-15T15:00:31.265Z,82.59
2022-12-15T15:04:02.859Z,82.62
2022-12-15T15:07:30.743Z,82.57
2022-12-15T15:11:00.910Z,82.58
2022-12-15T15:14:31.660Z,82.74
2022-12-15T15:18:00.505Z,82.50
2022-12-15T15:21:29.782Z,82.40
2022-12-15T15:24:56.526Z,82.30
2022-12-15T15:28:29.274Z,82.31
2022-12-15T15:32:05.696Z,82.25
2022-12-15T15:35:35.235Z,82.21
2022-12-15T15:39:03.199Z,82.22
2022-12-15T15:42:32.680Z,82.31
2022-12-15T15:46:04.280Z,82.51
2022-12-15T15:49:37.658Z,82.58
2022-12-15T15:53:06.813Z,82.57
2022-12-15T15:56:34.527Z,82.50
2022-12-15T16:00:02.802Z,82.69
2022-12-15T16:03:34.751Z,82.96
2022-12-15T16:07:01.891Z,82.99
2022-12-15T16:10:29.017Z,82.99
2022-12-15T16:13:56.703Z,83.00
2022-12-15T16:17:24.001Z,82.91
2022-12-15T16:20:53.076Z,82.93
2022-12-15T16:24:21.282Z,83.16
2022-12-15T16:27:48.176Z,83.10
2022-12-15T16:31:29.447Z,83.19
2022-12-15T16:34:58.497Z,83.31
2022-12-15T16:38:27.909Z,83.39
2022-12-15T16:41:56.468Z,83.25
2022-12-15T16:45:26.212Z,83.18
2022-12-15T16:48:53.599Z,83.20
2022-12-15T16:52:22.923Z,83.27
2022-12-15T16:55:53.011Z,83.18
2022-12-15T16:59:36.857Z,83.27
2022-12-15T17:03:04.331Z,83.21
2022-12-15T17:06:31.357Z,83.01
2022-12-15T17:09:58.245Z,83.07
2022-12-15T17:13:37.680Z,83.04
2022-12-15T17:17:13.698Z,83.18
2022-12-15T17:20:40.452Z,83.16
2022-12-15T17:24:13.327Z,83.05
2022-12-15T17:27:40.103Z,83.30
2022-12-15T17:31:06.921Z,83.15
2022-12-15T17:34:34.936Z,83.30
2022-12-15T17:38:01.545Z,83.34
2022-12-15T17:41:57.904Z,83.06
2022-12-15T17:45:19.841Z,82.76
2022-12-15T17:48:47.105Z,82.71
2022-12-15T17:52:27.283Z,82.60
2022-12-15T17:55:55.501Z,82.64
2022-12-15T17:59:22.828Z,82.69
2022-12-15T18:02:50.336Z,82.48
2022-12-15T18:06:18.745Z,82.64
2022-12-15T18:09:45.630Z,82.75
2022-12-15T18:13:18.778Z,82.85
2022-12-15T18:16:46.598Z,82.80
2022-12-15T18:20:14.382Z,83.09
2022-12-15T18:23:41.194Z,82.98
2022-12-15T18:27:20.447Z,82.96
2022-12-15T18:30:47.563Z,83.30
2022-12-15T18:34:21.972Z,83.29
2022-12-15T18:37:48.925Z,83.31
2022-12-15T18:41:18.152Z,83.63
2022-12-15T18:44:48.125Z,83.74
2022-12-15T18:48:18.961Z,83.79
2022-12-15T18:51:46.495Z,83.95
2022-12-15T18:55:21.272Z,83.50
2022-12-15T18:58:48.240Z,83.92
2022-12-15T19:02:15.105Z,83.84
2022-12-15T19:05:42.094Z,83.94
2022-12-15T19:09:14.478Z,83.93
2022-12-15T19:12:41.794Z,83.82
2022-12-15T19:16:16.031Z,83.84
2022-12-15T19:20:00.514Z,83.69
2022-12-15T19:23:27.278Z,83.94
2022-12-15T19:26:53.806Z,84.22
2022-12-15T19:30:22.530Z,84.37
2022-12-15T19:33:49.088Z,84.43
2022-12-15T19:37:23.771Z,84.39
2022-12-15T19:40:53.279Z,84.56
2022-12-15T19:44:20.209Z,84.83
2022-12-15T19:47:46.992Z,84.49
2022-12-15T19:51:15.871Z,84.36
2022-12-15T19:54:44.127Z,84.62
2022-12-15T19:58:29.055Z,85.08
2022-12-15T20:01:56.207Z,84.96
2022-12-15T20:05:24.235Z,85.21
2022-12-15T20:08:53.316Z,85.29
2022-12-15T20:12:22.664Z,85.23
2022-12-15T20:15:49.399Z,85.33
2022-12-15T20:19:16.005Z,85.26
2022-12-15T20:22:42.762Z,85.32
2022-12-15T20:26:12.067Z,85.36
2022-12-15T20:29:38.768Z,85.32
2022-12-15T20:33:06.804Z,85.71
2022-12-15T20:36:33.644Z,85.55
2022-12-15T20:40:00.238Z,85.44
2022-12-15T20:43:31.147Z,85.34
2022-12-15T20:46:58.051Z,85.53
2022-12-15T20:50:34.992Z,85.67
2022-12-15T20:54:03.864Z,85.87
2022-12-15T20:57:29.257Z,85.65
2022-12-15T21:00:56.491Z,85.46
2022-12-15T21:04:27.665Z,85.41
2022-12-15T21:07:55.235Z,85.46
2022-12-15T21:11:24.322Z,85.46
2022-12-15T21:14:51.363Z,85.78
2022-12-15T21:18:57.560Z,85.87
2022-12-15T21:22:06.431Z,85.74
2022-12-15T21:25:33.105Z,85.78
2022-12-15T21:29:03.250Z,85.72
2022-12-15T21:32:30.286Z,86.20
2022-12-15T21:35:56.888Z,86.12
2022-12-15T21:39:29.304Z,85.79
2022-12-15T21:42:57.178Z,85.77
2022-12-15T21:46:28.839Z,85.64
2022-12-15T21:49:56.088Z,85.78
2022-12-15T21:53:23.267Z,85.99
2022-12-15T21:56:51.292Z,86.42
2022-12-15T22:00:21.257Z,86.56
2022-12-15T22:03:52.787Z,87.11
2022-12-15T22:07:21.806Z,87.27
2022-12-15T22:10:50.602Z,87.67
2022-12-15T22:14:25.241Z,87.71
2022-12-15T22:17:52.141Z,87.97
2022-12-15T22:21:18.915Z,88.10
2022-12-15T22:24:46.100Z,88.09
2022-12-15T22:28:22.671Z,88.16
2022-12-15T22:31:50.400Z,88.52
2022-12-15T22:35:19.513Z,88.35
2022-12-15T22:38:46.944Z,88.00
2022-12-15T22:42:17.973Z,87.83
2022-12-15T22:45:44.642Z,87.68
2022-12-15T22:49:17.819Z,87.65
2022-12-15T22:52:46.349Z,87.44
2022-12-15T22:56:32.302Z,87.38
2022-12-15T23:00:04.188Z,87.24
2022-12-15T23:03:31.801Z,87.17
2022-12-15T23:06:59.914Z,86.96
2022-12-15T23:10:44.666Z,86.99
2022-12-15T23:14:13.053Z,86.70
2022-12-15T23:17:39.685Z,86.68
2022-12-15T23:21:08.163Z,86.62
2022-12-15T23:24:35.236Z,86.42
2022-12-15T23:28:01.972Z,86.38
2022-12-15T23:31:29.065Z,86.78
2022-12-15T23:34:56.173Z,86.65
2022-12-15T23:38:23.337Z,86.65
2022-12-15T23:41:49.925Z,86.81
2022-12-15T23:45:18.192Z,86.68
2022-12-15T23:48:45.656Z,86.98
2022-12-15T23:52:12.823Z,86.79
2022-12-15T23:55:39.449Z,86.84
2022-12-15T23:59:06.132Z,86.54
